Time,TemperatureF,DewpointF,PressureIn,WindDirection,WindDirectionDegrees,WindSpeedMPH,WindSpeedGustMPH,Humidity,HourlyPrecipIn,Conditions,Clouds,dailyrainin,SoftwareType,DateUTC
2013-03-25 00:03:00,33.4,25.4,29.76,North,6,1.0,4.0,72,0.00,,OVC060,0.00,VWS V14.00,2013-03-25 04:03:00,
2013-03-25 00:08:00,33.1,25.4,29.76,North,6,1.0,3.0,73,0.00,,OVC060,0.00,VWS V14.00,2013-03-25 04:08:00,
2013-03-25 00:13:00,33.1,25.7,29.76,North,6,1.0,3.0,74,0.00,,OVC060,0.00,VWS V14.00,2013-03-25 04:13:00,
2013-03-25 00:18:00,33.1,25.4,29.75,North,6,2.0,3.0,73,0.00,,OVC060,0.00,VWS V14.00,2013-03-25 04:18:00,
2013-03-25 00:23:00,33.1,25.4,29.76,North,6,1.0,3.0,73,0.00,,OVC060,0.00,VWS V14.00,2013-03-25 04:23:00,
2013-03-25 00:28:00,33.1,25.4,29.76,North,6,0.0,3.0,73,0.00,,OVC060,0.00,VWS V14.00,2013-03-25 04:28:00,
2013-03-25 00:33:00,33.3,25.6,29.76,North,6,0.0,1.0,73,0.00,,OVC060,0.00,VWS V14.00,2013-03-25 04:33:00,
2013-03-25 00:38:00,33.3,25.6,29.75,North,6,0.0,3.0,73,0.00,,OVC060,0.00,VWS V14.00,2013-03-25 04:38:00,
2013-03-25 00:43:00,33.1,25.4,29.75,North,6,0.0,3.0,73,0.00,,OVC060,0.00,VWS V14.00,2013-03-25 04:43:00,
2013-03-25 00:48:00,33.0,25.6,29.76,North,6,0.0,3.0,74,0.00,,OVC060,0.00,VWS V14.00,2013-03-25 04:48:00,
2013-03-25 00:53:00,32.6,25.2,29.75,North,6,0.0,3.0,74,0.00,,OVC060,0.00,VWS V14.00,2013-03-25 04:53:00,
2013-03-25 00:58:00,32.3,25.3,29.75,North,6,0.0,3.0,75,0.00,,OVC060,0.00,VWS V14.00,2013-03-25 04:58:00,
2013-03-25 01:03:00,32.1,25.1,29.74,North,6,0.0,0.0,75,0.00,,OVC060,0.00,VWS V14.00,2013-03-25 05:03:00,
2013-03-25 01:08:00,32.0,25.0,29.75,North,6,0.0,0.0,75,0.00,,OVC060,0.00,VWS V14.00,2013-03-25 05:08:00,
2013-03-25 01:13:00,31.7,25.0,29.74,North,6,1.0,2.0,76,0.00,,OVC060,0.00,VWS V14.00,2013-03-25 05:13:00,
2013-03-25 01:18:00,31.4,25.0,29.74,North,6,0.0,2.0,77,0.00,,OVC060,0.00,VWS V14.00,2013-03-25 05:18:00,
2013-03-25 01:23:00,31.3,24.9,29.74,North,6,0.0,2.0,77,0.00,,OVC060,0.00,VWS V14.00,2013-03-25 05:23:00,
2013-03-25 01:28:00,31.0,24.6,29.74,North,6,0.0,2.0,77,0.00,,OVC060,0.00,VWS V14.00,2013-03-25 05:28:00,
2013-03-25 01:33:00,30.8,24.8,29.74,North,6,0.0,0.0,78,0.00,,OVC060,0.00,VWS V14.00,2013-03-25 05:33:00,
2013-03-25 01:38:00,30.7,24.4,29.74,North,6,0.0,0.0,77,0.00,,OVC060,0.00,VWS V14.00,2013-03-25 05:38:00,
2013-03-25 01:43:00,30.6,24.6,29.74,North,6,0.0,0.0,78,0.00,,OVC060,0.00,VWS V14.00,2013-03-25 05:43:00,
2013-03-25 01:48:00,30.4,24.4,29.74,North,6,1.0,2.0,78,0.00,,OVC060,0.00,VWS V14.00,2013-03-25 05:48:00,
2013-03-25 01:53:00,30.2,24.5,29.74,North,6,0.0,2.0,79,0.00,,OVC060,0.00,VWS V14.00,2013-03-25 05:53:00,
2013-03-25 01:58:00,30.1,24.4,29.74,North,6,0.0,2.0,79,0.00,,OVC060,0.00,VWS V14.00,2013-03-25 05:58:00,
2013-03-25 02:03:00,30.0,24.6,29.74,North,6,0.0,2.0,80,0.00,,OVC060,0.00,VWS V14.00,2013-03-25 06:03:00,
2013-03-25 02:08:00,29.8,24.4,29.74,North,6,0.0,2.0,80,0.00,,OVC060,0.00,VWS V14.00,2013-03-25 06:08:00,
2013-03-25 02:13:00,29.6,24.2,29.74,North,6,0.0,2.0,80,0.00,,OVC060,0.00,VWS V14.00,2013-03-25 06:13:00,
2013-03-25 02:18:00,29.5,24.1,29.74,North,6,0.0,2.0,80,0.00,,OVC060,0.00,VWS V14.00,2013-03-25 06:18:00,
2013-03-25 02:23:00,29.3,24.2,29.74,North,6,0.0,2.0,81,0.00,,OVC060,0.00,VWS V14.00,2013-03-25 06:23:00,
2013-03-25 02:28:00,29.3,24.2,29.74,North,6,0.0,2.0,81,0.00,,OVC060,0.00,VWS V14.00,2013-03-25 06:28:00,
2013-03-25 02:33:00,29.2,24.1,29.74,North,6,0.0,2.0,81,0.00,,OVC060,0.00,VWS V14.00,2013-03-25 06:33:00,
2013-03-25 02:38:00,29.0,23.9,29.74,North,6,0.0,2.0,81,0.00,,OVC060,0.00,VWS V14.00,2013-03-25 06:38:00,
2013-03-25 02:43:00,28.9,24.1,29.73,North,6,0.0,2.0,82,0.00,,OVC060,0.00,VWS V14.00,2013-03-25 06:43:00,
2013-03-25 02:48:00,28.7,23.9,29.74,North,6,0.0,2.0,82,0.00,,OVC060,0.00,VWS V14.00,2013-03-25 06:48:00,
2013-03-25 02:53:00,28.6,24.1,29.73,North,6,0.0,2.0,83,0.00,,OVC060,0.00,VWS V14.00,2013-03-25 06:53:00,
2013-03-25 02:58:00,28.6,24.1,29.73,North,6,0.0,2.0,83,0.00,,OVC060,0.00,VWS V14.00,2013-03-25 06:58:00,
2013-03-25 03:03:00,28.6,24.1,29.73,North,6,0.0,0.0,83,0.00,,CLR,0.00,VWS V14.00,2013-03-25 07:03:00,
2013-03-25 03:08:00,28.6,24.1,29.73,North,6,0.0,0.0,83,0.00,,CLR,0.00,VWS V14.00,2013-03-25 07:08:00,
2013-03-25 03:13:00,28.6,24.4,29.73,North,6,0.0,0.0,84,0.00,,CLR,0.00,VWS V14.00,2013-03-25 07:13:00,
2013-03-25 03:18:00,28.6,24.4,29.73,North,6,0.0,0.0,84,0.00,,CLR,0.00,VWS V14.00,2013-03-25 07:18:00,
2013-03-25 03:23:00,28.6,24.4,29.73,North,6,0.0,1.0,84,0.00,,CLR,0.00,VWS V14.00,2013-03-25 07:23:00,
2013-03-25 03:28:00,28.6,24.4,29.72,North,6,0.0,2.0,84,0.00,,CLR,0.00,VWS V14.00,2013-03-25 07:28:00,
2013-03-25 03:33:00,28.6,24.4,29.72,North,6,0.0,1.0,84,0.00,,CLR,0.00,VWS V14.00,2013-03-25 07:33:00,
2013-03-25 03:38:00,28.8,24.6,29.72,North,6,0.0,1.0,84,0.00,,CLR,0.00,VWS V14.00,2013-03-25 07:38:00,
2013-03-25 03:43:00,28.8,24.9,29.72,North,6,0.0,1.0,85,0.00,,CLR,0.00,VWS V14.00,2013-03-25 07:43:00,
2013-03-25 03:48:00,28.7,24.8,29.72,North,6,0.0,1.0,85,0.00,,CLR,0.00,VWS V14.00,2013-03-25 07:48:00,
2013-03-25 03:53:00,28.9,25.0,29.72,North,6,0.0,2.0,85,0.00,,CLR,0.00,VWS V14.00,2013-03-25 07:53:00,
2013-03-25 03:58:00,29.0,25.1,29.72,North,6,1.0,2.0,85,0.00,,CLR,0.00,VWS V14.00,2013-03-25 07:58:00,
2013-03-25 04:03:00,29.2,25.0,29.71,North,6,1.0,3.0,84,0.00,,CLR,0.00,VWS V14.00,2013-03-25 08:03:00,
2013-03-25 04:08:00,29.3,25.1,29.71,North,6,1.0,3.0,84,0.00,,CLR,0.00,VWS V14.00,2013-03-25 08:08:00,
2013-03-25 04:13:00,29.3,25.1,29.71,North,6,0.0,3.0,84,0.00,,CLR,0.00,VWS V14.00,2013-03-25 08:13:00,
2013-03-25 04:18:00,29.3,24.8,29.72,North,6,0.0,4.0,83,0.00,,CLR,0.00,VWS V14.00,2013-03-25 08:18:00,
2013-03-25 04:23:00,29.3,24.8,29.71,North,6,0.0,4.0,83,0.00,,CLR,0.00,VWS V14.00,2013-03-25 08:23:00,
2013-03-25 04:28:00,29.2,24.7,29.72,North,6,0.0,4.0,83,0.00,,CLR,0.00,VWS V14.00,2013-03-25 08:28:00,
2013-03-25 04:33:00,29.0,24.5,29.72,North,6,1.0,1.0,83,0.00,,CLR,0.00,VWS V14.00,2013-03-25 08:33:00,
2013-03-25 04:38:00,28.9,24.4,29.71,North,6,0.0,1.0,83,0.00,,CLR,0.00,VWS V14.00,2013-03-25 08:38:00,
2013-03-25 04:43:00,28.9,24.4,29.71,North,6,0.0,2.0,83,0.00,,CLR,0.00,VWS V14.00,2013-03-25 08:43:00,
2013-03-25 04:48:00,28.8,24.3,29.71,North,6,0.0,2.0,83,0.00,,CLR,0.00,VWS V14.00,2013-03-25 08:48:00,
2013-03-25 04:53:00,28.6,24.1,29.70,North,6,0.0,2.0,83,0.00,,CLR,0.00,VWS V14.00,2013-03-25 08:53:00,
2013-03-25 04:58:00,28.5,24.0,29.70,North,6,0.0,2.0,83,0.00,,CLR,0.00,VWS V14.00,2013-03-25 08:58:00,
2013-03-25 05:03:00,28.3,23.8,29.70,North,6,0.0,2.0,83,0.00,,CLR,0.00,VWS V14.00,2013-03-25 09:03:00,
2013-03-25 05:08:00,28.3,23.8,29.70,North,6,1.0,2.0,83,0.00,,CLR,0.00,VWS V14.00,2013-03-25 09:08:00,
2013-03-25 05:13:00,28.3,23.8,29.70,North,6,2.0,3.0,83,0.00,,CLR,0.00,VWS V14.00,2013-03-25 09:13:00,
2013-03-25 05:18:00,28.5,24.0,29.70,North,6,1.0,3.0,83,0.00,,CLR,0.00,VWS V14.00,2013-03-25 09:18:00,
2013-03-25 05:23:00,28.6,23.8,29.70,North,6,0.0,3.0,82,0.00,,CLR,0.00,VWS V14.00,2013-03-25 09:23:00,
2013-03-25 05:29:00,28.5,23.7,29.70,North,6,0.0,3.0,82,0.00,,CLR,0.00,VWS V14.00,2013-03-25 09:29:00,
2013-03-25 05:34:00,28.3,23.5,29.70,North,6,0.0,1.0,82,0.00,,CLR,0.00,VWS V14.00,2013-03-25 09:34:00,
2013-03-25 05:39:00,28.3,23.5,29.70,North,6,0.0,2.0,82,0.00,,CLR,0.00,VWS V14.00,2013-03-25 09:39:00,
2013-03-25 05:44:00,28.2,23.7,29.70,North,6,0.0,2.0,83,0.00,,CLR,0.00,VWS V14.00,2013-03-25 09:44:00,
2013-03-25 05:49:00,28.0,23.5,29.70,North,6,0.0,2.0,83,0.00,,CLR,0.00,VWS V14.00,2013-03-25 09:49:00,
2013-03-25 05:54:00,27.9,23.4,29.70,North,6,0.0,2.0,83,0.00,,CLR,0.00,VWS V14.00,2013-03-25 09:54:00,
2013-03-25 05:59:00,27.7,23.2,29.69,North,6,0.0,3.0,83,0.00,,CLR,0.00,VWS V14.00,2013-03-25 09:59:00,
2013-03-25 06:04:00,27.7,23.2,29.69,North,6,1.0,2.0,83,0.00,,CLR,0.00,VWS V14.00,2013-03-25 10:04:00,
2013-03-25 06:09:00,27.7,22.9,29.69,North,6,1.0,2.0,82,0.00,,CLR,0.00,VWS V14.00,2013-03-25 10:09:00,
2013-03-25 06:14:00,27.7,22.9,29.69,North,6,0.0,2.0,82,0.00,,CLR,0.00,VWS V14.00,2013-03-25 10:14:00,
2013-03-25 06:19:00,27.7,22.9,29.69,North,6,0.0,2.0,82,0.00,,CLR,0.00,VWS V14.00,2013-03-25 10:19:00,
2013-03-25 06:24:00,27.6,22.8,29.69,North,6,0.0,2.0,82,0.00,,CLR,0.00,VWS V14.00,2013-03-25 10:24:00,
2013-03-25 06:29:00,27.6,22.8,29.69,North,6,0.0,0.0,82,0.00,,CLR,0.00,VWS V14.00,2013-03-25 10:29:00,
2013-03-25 06:34:00,27.6,23.1,29.69,North,6,0.0,2.0,83,0.00,,CLR,0.00,VWS V14.00,2013-03-25 10:34:00,
2013-03-25 06:39:00,27.6,23.1,29.70,North,6,0.0,2.0,83,0.00,,CLR,0.00,VWS V14.00,2013-03-25 10:39:00,
2013-03-25 06:44:00,27.6,23.1,29.70,North,6,0.0,2.0,83,0.00,,CLR,0.00,VWS V14.00,2013-03-25 10:44:00,
2013-03-25 06:49:00,27.6,23.1,29.69,North,6,1.0,2.0,83,0.00,,CLR,0.00,VWS V14.00,2013-03-25 10:49:00,
2013-03-25 06:54:00,27.6,23.4,29.69,North,6,0.0,2.0,84,0.00,,CLR,0.00,VWS V14.00,2013-03-25 10:54:00,
2013-03-25 06:59:00,27.4,22.9,29.69,North,6,2.0,2.0,83,0.00,,CLR,0.00,VWS V14.00,2013-03-25 10:59:00,
2013-03-25 07:04:00,27.4,23.2,29.69,North,6,1.0,2.0,84,0.00,,BKN200,0.00,VWS V14.00,2013-03-25 11:04:00,
2013-03-25 07:09:00,27.6,23.1,29.70,North,6,1.0,3.0,83,0.00,,BKN200,0.00,VWS V14.00,2013-03-25 11:09:00,
2013-03-25 07:14:00,27.7,23.2,29.70,North,6,1.0,3.0,83,0.00,,BKN200,0.00,VWS V14.00,2013-03-25 11:14:00,
2013-03-25 07:19:00,27.9,23.4,29.70,North,6,0.0,3.0,83,0.00,,BKN200,0.00,VWS V14.00,2013-03-25 11:19:00,
2013-03-25 07:24:00,28.0,23.5,29.69,North,6,0.0,3.0,83,0.00,,BKN200,0.00,VWS V14.00,2013-03-25 11:24:00,
2013-03-25 07:29:00,28.2,23.7,29.69,North,6,1.0,1.0,83,0.00,,BKN200,0.00,VWS V14.00,2013-03-25 11:29:00,
2013-03-25 07:34:00,28.5,23.7,29.70,North,6,2.0,3.0,82,0.00,,BKN200,0.00,VWS V14.00,2013-03-25 11:34:00,
2013-03-25 07:39:00,28.8,24.0,29.70,North,6,0.0,4.0,82,0.00,,BKN200,0.00,VWS V14.00,2013-03-25 11:39:00,
2013-03-25 07:44:00,28.9,24.1,29.70,North,6,2.0,4.0,82,0.00,,BKN200,0.00,VWS V14.00,2013-03-25 11:44:00,
2013-03-25 07:49:00,29.0,23.9,29.70,North,6,1.0,4.0,81,0.00,,BKN200,0.00,VWS V14.00,2013-03-25 11:49:00,
2013-03-25 07:54:00,29.3,24.2,29.70,North,6,1.0,4.0,81,0.00,,BKN200,0.00,VWS V14.00,2013-03-25 11:54:00,
2013-03-25 07:59:00,29.6,23.9,29.70,North,6,2.0,2.0,79,0.00,,BKN200,0.00,VWS V14.00,2013-03-25 11:59:00,
2013-03-25 08:04:00,30.0,24.3,29.70,North,6,2.0,4.0,79,0.00,,BKN110,0.00,VWS V14.00,2013-03-25 12:04:00,
2013-03-25 08:09:00,30.2,24.5,29.70,North,6,2.0,4.0,79,0.00,,BKN110,0.00,VWS V14.00,2013-03-25 12:09:00,
2013-03-25 08:14:00,30.5,24.8,29.70,North,6,3.0,4.0,79,0.00,,BKN110,0.00,VWS V14.00,2013-03-25 12:14:00,
2013-03-25 08:19:00,30.7,24.7,29.70,North,6,3.0,6.0,78,0.00,,BKN110,0.00,VWS V14.00,2013-03-25 12:19:00,
2013-03-25 08:24:00,31.0,25.0,29.70,North,6,1.0,6.0,78,0.00,,BKN110,0.00,VWS V14.00,2013-03-25 12:24:00,
2013-03-25 08:29:00,31.3,25.2,29.70,North,6,1.0,1.0,78,0.00,,BKN110,0.00,VWS V14.00,2013-03-25 12:29:00,
2013-03-25 08:34:00,31.7,25.6,29.70,North,6,1.0,4.0,78,0.00,,BKN110,0.00,VWS V14.00,2013-03-25 12:34:00,
2013-03-25 08:39:00,32.1,26.0,29.70,North,6,3.0,4.0,78,0.00,,BKN110,0.00,VWS V14.00,2013-03-25 12:39:00,
2013-03-25 08:44:00,32.7,26.6,29.70,North,6,2.0,5.0,78,0.00,,BKN110,0.00,VWS V14.00,2013-03-25 12:44:00,
2013-03-25 08:49:00,33.4,26.7,29.70,North,6,1.0,5.0,76,0.00,,BKN110,0.00,VWS V14.00,2013-03-25 12:49:00,
2013-03-25 08:54:00,33.7,27.0,29.70,NNE,30,1.0,6.0,76,0.00,,BKN110,0.00,VWS V14.00,2013-03-25 12:54:00,
2013-03-25 08:59:00,34.0,27.6,29.69,NE,38,1.0,3.0,77,0.00,,BKN110,0.00,VWS V14.00,2013-03-25 12:59:00,
2013-03-25 09:04:00,34.3,27.5,29.69,NE,38,3.0,5.0,76,0.00,,BKN110,0.00,VWS V14.00,2013-03-25 13:04:00,
2013-03-25 09:09:00,34.4,27.6,29.69,NE,38,2.0,7.0,76,0.00,,BKN110,0.00,VWS V14.00,2013-03-25 13:09:00,
2013-03-25 09:14:00,34.8,28.0,29.69,NE,38,2.0,7.0,76,0.00,,BKN110,0.00,VWS V14.00,2013-03-25 13:14:00,
2013-03-25 09:19:00,35.1,28.3,29.69,NE,39,1.0,7.0,76,0.00,,BKN110,0.00,VWS V14.00,2013-03-25 13:19:00,
2013-03-25 09:24:00,35.4,28.6,29.68,NE,39,5.0,7.0,76,0.00,,BKN110,0.00,VWS V14.00,2013-03-25 13:24:00,
2013-03-25 09:29:00,35.6,28.8,29.68,NNE,14,4.0,4.0,76,0.00,,BKN110,0.00,VWS V14.00,2013-03-25 13:29:00,
2013-03-25 09:34:00,35.5,28.4,29.68,NNE,30,0.0,7.0,75,0.00,,BKN110,0.00,VWS V14.00,2013-03-25 13:34:00,
2013-03-25 09:39:00,36.0,29.2,29.68,NNE,21,3.0,7.0,76,0.00,,BKN110,0.00,VWS V14.00,2013-03-25 13:39:00,
2013-03-25 09:44:00,36.3,29.5,29.67,NNE,14,3.0,8.0,76,0.00,,BKN110,0.00,VWS V14.00,2013-03-25 13:44:00,
2013-03-25 09:49:00,36.5,29.3,29.67,North,1,2.0,11.0,75,0.00,,BKN110,0.00,VWS V14.00,2013-03-25 13:49:00,
2013-03-25 09:54:00,36.7,29.5,29.67,NE,41,3.0,11.0,75,0.00,,BKN110,0.00,VWS V14.00,2013-03-25 13:54:00,
2013-03-25 09:59:00,36.9,29.7,29.67,NNE,19,2.0,4.0,75,0.00,,BKN110,0.00,VWS V14.00,2013-03-25 13:59:00,
2013-03-25 10:04:00,37.1,29.9,29.67,NE,44,4.0,8.0,75,0.00,,OVC200,0.00,VWS V14.00,2013-03-25 14:04:00,
2013-03-25 10:09:00,37.3,30.1,29.66,NE,43,2.0,8.0,75,0.00,,OVC200,0.00,VWS V14.00,2013-03-25 14:09:00,
2013-03-25 10:14:00,37.5,30.3,29.66,NNE,17,1.0,8.0,75,0.00,,OVC200,0.00,VWS V14.00,2013-03-25 14:14:00,
2013-03-25 10:19:00,37.8,30.6,29.66,NE,49,2.0,8.0,75,0.00,,OVC200,0.00,VWS V14.00,2013-03-25 14:19:00,
2013-03-25 10:24:00,38.1,30.9,29.66,NE,51,1.0,8.0,75,0.00,,OVC200,0.00,VWS V14.00,2013-03-25 14:24:00,
2013-03-25 10:30:00,38.1,30.6,29.66,North,0,2.0,3.0,74,0.00,,OVC200,0.00,VWS V14.00,2013-03-25 14:30:00,
2013-03-25 10:35:00,38.1,30.9,29.65,NNE,25,3.0,7.0,75,0.00,,OVC200,0.00,VWS V14.00,2013-03-25 14:35:00,
2013-03-25 10:40:00,38.4,30.9,29.66,NNE,15,2.0,9.0,74,0.00,,OVC200,0.00,VWS V14.00,2013-03-25 14:40:00,
2013-03-25 10:45:00,38.8,31.2,29.66,NNE,18,1.0,9.0,74,0.00,,OVC200,0.00,VWS V14.00,2013-03-25 14:45:00,
2013-03-25 10:50:00,38.7,31.1,29.66,NNE,18,2.0,9.0,74,0.00,,OVC200,0.00,VWS V14.00,2013-03-25 14:50:00,
2013-03-25 10:55:00,38.8,31.2,29.66,NNE,19,1.0,9.0,74,0.00,,OVC200,0.00,VWS V14.00,2013-03-25 14:55:00,
2013-03-25 11:00:00,39.5,31.9,29.65,NNE,20,1.0,4.0,74,0.00,,OVC200,0.00,VWS V14.00,2013-03-25 15:00:00,
2013-03-25 11:05:00,39.7,31.8,29.65,NNE,20,2.0,6.0,73,0.00,,SCT022,0.00,VWS V14.00,2013-03-25 15:05:00,
2013-03-25 11:10:00,39.7,31.4,29.65,NNE,22,3.0,6.0,72,0.00,,SCT022,0.00,VWS V14.00,2013-03-25 15:10:00,
2013-03-25 11:15:00,39.8,31.9,29.65,NNE,21,3.0,9.0,73,0.00,,SCT022,0.00,VWS V14.00,2013-03-25 15:15:00,
2013-03-25 11:20:00,40.1,32.5,29.65,NNE,21,1.0,9.0,74,0.00,,SCT022,0.00,VWS V14.00,2013-03-25 15:20:00,
2013-03-25 11:25:00,40.4,32.1,29.64,NNE,20,2.0,9.0,72,0.00,,SCT022,0.00,VWS V14.00,2013-03-25 15:25:00,
2013-03-25 11:30:00,40.5,32.2,29.64,NNE,21,1.0,3.0,72,0.00,,SCT022,0.00,VWS V14.00,2013-03-25 15:30:00,
2013-03-25 11:35:00,40.8,32.1,29.64,ENE,77,5.0,8.0,71,0.00,,SCT022,0.00,VWS V14.00,2013-03-25 15:35:00,
2013-03-25 11:40:00,40.8,32.1,29.64,North,11,4.0,10.0,71,0.00,,SCT022,0.00,VWS V14.00,2013-03-25 15:40:00,
2013-03-25 11:45:00,41.0,32.0,29.64,NE,35,3.0,10.0,70,0.00,,SCT022,0.00,VWS V14.00,2013-03-25 15:45:00,
2013-03-25 11:50:00,40.7,31.7,29.63,North,3,4.0,10.0,70,0.00,,SCT022,0.00,VWS V14.00,2013-03-25 15:50:00,
2013-03-25 11:55:00,40.7,31.7,29.64,NNE,17,2.0,10.0,70,0.00,,SCT022,0.00,VWS V14.00,2013-03-25 15:55:00,
2013-03-25 12:00:00,41.3,32.6,29.63,NNE,25,2.0,4.0,71,0.00,,SCT022,0.00,VWS V14.00,2013-03-25 16:00:00,
2013-03-25 12:05:00,41.5,31.7,29.63,ENE,64,3.0,7.0,68,0.00,,BKN026,0.00,VWS V14.00,2013-03-25 16:05:00,
2013-03-25 12:10:00,40.8,31.1,29.63,NE,41,2.0,7.0,68,0.00,,BKN026,0.00,VWS V14.00,2013-03-25 16:10:00,
2013-03-25 12:15:00,40.4,31.4,29.63,NE,56,5.0,9.0,70,0.00,,BKN026,0.00,VWS V14.00,2013-03-25 16:15:00,
2013-03-25 12:20:00,39.8,31.2,29.63,NNE,32,1.0,9.0,71,0.00,,BKN026,0.00,VWS V14.00,2013-03-25 16:20:00,
2013-03-25 12:25:00,39.5,30.9,29.63,ENE,64,4.0,10.0,71,0.00,,BKN026,0.00,VWS V14.00,2013-03-25 16:25:00,
2013-03-25 12:30:00,39.1,30.9,29.63,ENE,59,4.0,6.0,72,0.00,,BKN026,0.00,VWS V14.00,2013-03-25 16:30:00,
2013-03-25 12:35:00,38.8,30.9,29.63,ENE,66,0.0,7.0,73,0.00,,BKN026,0.00,VWS V14.00,2013-03-25 16:35:00,
2013-03-25 12:40:00,38.7,31.1,29.62,NE,46,2.0,7.0,74,0.00,,BKN026,0.00,VWS V14.00,2013-03-25 16:40:00,
2013-03-25 12:45:00,38.7,31.1,29.62,NE,46,2.0,7.0,74,0.00,,BKN026,0.00,VWS V14.00,2013-03-25 16:45:00,
2013-03-25 12:50:00,38.8,31.2,29.61,NE,46,2.0,7.0,74,0.00,,BKN026,0.00,VWS V14.00,2013-03-25 16:50:00,
2013-03-25 12:55:00,39.0,31.4,29.61,North,5,4.0,8.0,74,0.00,,BKN026,0.00,VWS V14.00,2013-03-25 16:55:00,
2013-03-25 13:00:00,39.2,31.6,29.61,North,4,2.0,4.0,74,0.00,,BKN026,0.00,VWS V14.00,2013-03-25 17:00:00,
2013-03-25 13:05:00,39.4,31.8,29.61,ENE,75,3.0,7.0,74,0.00,,BKN026,0.00,VWS V14.00,2013-03-25 17:05:00,
2013-03-25 13:10:00,39.7,31.8,29.61,NE,36,3.0,8.0,73,0.00,,BKN026,0.00,VWS V14.00,2013-03-25 17:10:00,
2013-03-25 13:15:00,40.0,32.1,29.60,NE,43,4.0,8.0,73,0.00,,BKN026,0.00,VWS V14.00,2013-03-25 17:15:00,
2013-03-25 13:20:00,40.1,31.8,29.60,North,353,4.0,9.0,72,0.00,,BKN026,0.00,VWS V14.00,2013-03-25 17:20:00,
2013-03-25 13:25:00,40.1,31.8,29.60,East,80,5.0,9.0,72,0.00,,BKN026,0.00,VWS V14.00,2013-03-25 17:25:00,
2013-03-25 13:30:00,39.7,31.4,29.60,NNE,21,4.0,7.0,72,0.00,,BKN026,0.00,VWS V14.00,2013-03-25 17:30:00,
2013-03-25 13:35:00,39.7,31.8,29.60,NE,46,3.0,10.0,73,0.00,,BKN026,0.00,VWS V14.00,2013-03-25 17:35:00,
2013-03-25 13:40:00,39.5,31.6,29.60,East,86,2.0,10.0,73,0.00,,BKN026,0.00,VWS V14.00,2013-03-25 17:40:00,
2013-03-25 13:45:00,39.3,31.7,29.60,North,11,3.0,10.0,74,0.00,,BKN026,0.00,VWS V14.00,2013-03-25 17:45:00,
2013-03-25 13:50:00,39.3,31.7,29.60,North,3,5.0,10.0,74,0.00,,BKN026,0.00,VWS V14.00,2013-03-25 17:50:00,
2013-03-25 13:55:00,39.4,32.2,29.60,NNE,33,2.0,10.0,75,0.00,,BKN026,0.00,VWS V14.00,2013-03-25 17:55:00,
2013-03-25 14:00:00,39.4,31.8,29.59,NNE,25,5.0,8.0,74,0.00,,BKN026,0.00,VWS V14.00,2013-03-25 18:00:00,
2013-03-25 14:05:00,39.3,31.7,29.60,North,3,4.0,8.0,74,0.00,,BKN026,0.00,VWS V14.00,2013-03-25 18:05:00,
2013-03-25 14:10:00,39.0,31.8,29.59,ENE,64,0.0,9.0,75,0.00,,BKN026,0.00,VWS V14.00,2013-03-25 18:10:00,
2013-03-25 14:15:00,39.0,31.8,29.59,NE,35,4.0,10.0,75,0.00,,BKN026,0.00,VWS V14.00,2013-03-25 18:15:00,
2013-03-25 14:20:00,38.8,31.6,29.59,NNE,33,2.0,10.0,75,0.00,,BKN026,0.00,VWS V14.00,2013-03-25 18:20:00,
2013-03-25 14:25:00,38.8,31.6,29.59,NNE,25,5.0,10.0,75,0.00,,BKN026,0.00,VWS V14.00,2013-03-25 18:25:00,
2013-03-25 14:30:00,38.7,31.8,29.59,SE,137,4.0,6.0,76,0.00,,BKN026,0.00,VWS V14.00,2013-03-25 18:30:00,
2013-03-25 14:35:00,38.7,31.5,29.58,ENE,73,2.0,6.0,75,0.00,,BKN026,0.00,VWS V14.00,2013-03-25 18:35:00,
2013-03-25 14:40:00,38.6,31.7,29.58,NE,40,3.0,8.0,76,0.00,,BKN026,0.00,VWS V14.00,2013-03-25 18:40:00,
2013-03-25 14:45:00,38.4,31.5,29.57,North,6,3.0,8.0,76,0.00,,BKN026,0.00,VWS V14.00,2013-03-25 18:45:00,
2013-03-25 14:50:00,38.3,31.4,29.57,NE,55,3.0,9.0,76,0.00,,BKN026,0.00,VWS V14.00,2013-03-25 18:50:00,
2013-03-25 14:55:00,38.3,31.4,29.56,East,90,2.0,9.0,76,0.00,,BKN026,0.00,VWS V14.00,2013-03-25 18:55:00,
2013-03-25 15:00:00,38.3,31.4,29.56,NNE,15,2.0,9.0,76,0.00,,OVC041,0.00,VWS V14.00,2013-03-25 19:00:00,
2013-03-25 15:05:00,38.4,31.5,29.55,North,10,4.0,9.0,76,0.00,,OVC041,0.00,VWS V14.00,2013-03-25 19:05:00,
2013-03-25 15:10:00,38.4,31.5,29.55,NE,51,3.0,10.0,76,0.00,,OVC041,0.00,VWS V14.00,2013-03-25 19:10:00,
2013-03-25 15:15:00,38.3,31.4,29.54,NE,50,3.0,13.0,76,0.00,,OVC041,0.00,VWS V14.00,2013-03-25 19:15:00,
2013-03-25 15:20:00,38.1,31.5,29.53,NE,48,2.0,13.0,77,0.00,,OVC041,0.00,VWS V14.00,2013-03-25 19:20:00,
2013-03-25 15:25:00,38.0,31.4,29.53,North,4,2.0,13.0,77,0.00,,OVC041,0.00,VWS V14.00,2013-03-25 19:25:00,
2013-03-25 15:30:00,38.0,31.4,29.52,NE,42,3.0,6.0,77,0.00,,OVC041,0.00,VWS V14.00,2013-03-25 19:30:00,
2013-03-25 15:35:00,38.1,31.5,29.52,ENE,59,5.0,11.0,77,0.00,,OVC041,0.00,VWS V14.00,2013-03-25 19:35:00,
2013-03-25 15:40:00,38.3,31.4,29.51,North,0,3.0,11.0,76,0.00,,OVC041,0.00,VWS V14.00,2013-03-25 19:40:00,
2013-03-25 15:45:00,38.5,31.6,29.51,East,97,1.0,11.0,76,0.00,,OVC041,0.00,VWS V14.00,2013-03-25 19:45:00,
2013-03-25 15:50:00,39.0,31.8,29.52,North,358,6.0,11.0,75,0.00,,OVC041,0.00,VWS V14.00,2013-03-25 19:50:00,
2013-03-25 15:55:00,39.1,31.9,29.52,ENE,67,1.0,11.0,75,0.00,,OVC041,0.00,VWS V14.00,2013-03-25 19:55:00,
2013-03-25 16:00:00,39.1,31.5,29.51,NE,52,4.0,6.0,74,0.00,,OVC041,0.00,VWS V14.00,2013-03-25 20:00:00,
2013-03-25 16:05:00,39.1,31.5,29.51,North,359,0.0,9.0,74,0.00,,BKN050,0.00,VWS V14.00,2013-03-25 20:05:00,
2013-03-25 16:10:00,39.4,31.1,29.51,NE,42,4.0,9.0,72,0.00,,BKN050,0.00,VWS V14.00,2013-03-25 20:10:00,
2013-03-25 16:15:00,39.5,30.9,29.51,ESE,122,4.0,9.0,71,0.00,,BKN050,0.00,VWS V14.00,2013-03-25 20:15:00,
2013-03-25 16:20:00,39.2,30.6,29.52,NE,36,2.0,13.0,71,0.00,,BKN050,0.00,VWS V14.00,2013-03-25 20:20:00,
2013-03-25 16:25:00,38.8,30.2,29.52,East,97,6.0,13.0,71,0.00,,BKN050,0.00,VWS V14.00,2013-03-25 20:25:00,
2013-03-25 16:30:00,38.4,30.2,29.52,NE,50,1.0,4.0,72,0.00,,BKN050,0.00,VWS V14.00,2013-03-25 20:30:00,
2013-03-25 16:35:00,38.3,30.1,29.52,NNE,25,5.0,9.0,72,0.00,,BKN050,0.00,VWS V14.00,2013-03-25 20:35:00,
2013-03-25 16:40:00,38.3,30.1,29.52,NE,48,3.0,9.0,72,0.00,,BKN050,0.00,VWS V14.00,2013-03-25 20:40:00,
2013-03-25 16:45:00,38.4,29.8,29.52,East,82,7.0,9.0,71,0.00,,BKN050,0.00,VWS V14.00,2013-03-25 20:45:00,
2013-03-25 16:50:00,38.7,30.1,29.52,North,1,4.0,10.0,71,0.00,,BKN050,0.00,VWS V14.00,2013-03-25 20:50:00,
2013-03-25 16:55:00,39.0,30.4,29.52,SSE,151,2.0,10.0,71,0.00,,BKN050,0.00,VWS V14.00,2013-03-25 20:55:00,
2013-03-25 17:00:00,39.0,30.1,29.51,East,97,1.0,3.0,70,0.00,,BKN050,0.00,VWS V14.00,2013-03-25 21:00:00,
2013-03-25 17:05:00,39.0,30.1,29.51,NE,41,5.0,13.0,70,0.00,,BKN034,0.00,VWS V14.00,2013-03-25 21:05:00,
2013-03-25 17:10:00,38.7,29.8,29.52,NE,37,4.0,13.0,70,0.00,,BKN034,0.00,VWS V14.00,2013-03-25 21:10:00,
2013-03-25 17:15:00,38.4,29.8,29.52,North,3,3.0,13.0,71,0.00,,BKN034,0.00,VWS V14.00,2013-03-25 21:15:00,
2013-03-25 17:20:00,38.3,29.7,29.52,NE,43,4.0,13.0,71,0.00,,BKN034,0.00,VWS V14.00,2013-03-25 21:20:00,
2013-03-25 17:25:00,38.1,29.9,29.52,ENE,77,1.0,13.0,72,0.00,,BKN034,0.00,VWS V14.00,2013-03-25 21:25:00,
2013-03-25 17:30:00,38.1,29.9,29.52,NNE,32,5.0,6.0,72,0.00,,BKN034,0.00,VWS V14.00,2013-03-25 21:30:00,
2013-03-25 17:35:00,38.0,29.8,29.52,NNE,25,3.0,8.0,72,0.00,,BKN034,0.00,VWS V14.00,2013-03-25 21:35:00,
2013-03-25 17:40:00,37.8,29.6,29.52,NNW,340,4.0,8.0,72,0.00,,BKN034,0.00,VWS V14.00,2013-03-25 21:40:00,
2013-03-25 17:45:00,37.7,29.5,29.52,NE,34,2.0,8.0,72,0.00,,BKN034,0.00,VWS V14.00,2013-03-25 21:45:00,
2013-03-25 17:50:00,37.6,29.7,29.52,NNE,33,6.0,11.0,73,0.00,,BKN034,0.00,VWS V14.00,2013-03-25 21:50:00,
2013-03-25 17:55:00,37.3,29.8,29.52,NNE,28,4.0,11.0,74,0.00,,BKN034,0.00,VWS V14.00,2013-03-25 21:55:00,
2013-03-25 18:00:00,37.3,29.8,29.53,NNE,29,6.0,10.0,74,0.00,,BKN034,0.00,VWS V14.00,2013-03-25 22:00:00,
2013-03-25 18:05:00,37.1,29.6,29.52,NE,43,1.0,10.0,74,0.00,,OVC047,0.00,VWS V14.00,2013-03-25 22:05:00,
2013-03-25 18:10:00,37.0,29.8,29.53,ENE,59,2.0,10.0,75,0.00,,OVC047,0.00,VWS V14.00,2013-03-25 22:10:00,
2013-03-25 18:15:00,36.8,29.3,29.52,ENE,69,1.0,12.0,74,0.00,,OVC047,0.00,VWS V14.00,2013-03-25 22:15:00,
2013-03-25 18:20:00,36.7,29.5,29.53,North,3,3.0,12.0,75,0.00,,OVC047,0.00,VWS V14.00,2013-03-25 22:20:00,
2013-03-25 18:25:00,36.7,29.5,29.53,NE,41,4.0,12.0,75,0.00,,OVC047,0.00,VWS V14.00,2013-03-25 22:25:00,
2013-03-25 18:30:00,36.5,29.3,29.53,ENE,58,4.0,4.0,75,0.00,,OVC047,0.00,VWS V14.00,2013-03-25 22:30:00,
2013-03-25 18:35:00,36.4,29.6,29.53,North,6,3.0,8.0,76,0.00,,OVC047,0.00,VWS V14.00,2013-03-25 22:35:00,
2013-03-25 18:40:00,36.0,29.8,29.53,NNE,18,1.0,8.0,78,0.00,,OVC047,0.00,VWS V14.00,2013-03-25 22:40:00,
2013-03-25 18:45:00,35.7,29.8,29.53,NNE,26,0.0,8.0,79,0.00,,OVC047,0.00,VWS V14.00,2013-03-25 22:45:00,
2013-03-25 18:50:00,35.5,30.0,29.53,NNE,33,4.0,8.0,80,0.00,,OVC047,0.00,VWS V14.00,2013-03-25 22:50:00,
2013-03-25 18:55:00,35.5,30.0,29.53,NNE,33,1.0,13.0,80,0.00,,OVC047,0.00,VWS V14.00,2013-03-25 22:55:00,
2013-03-25 19:00:00,35.7,30.1,29.53,NE,34,2.0,4.0,80,0.00,,BKN060,0.00,VWS V14.00,2013-03-25 23:00:00,
2013-03-25 19:05:00,35.8,29.9,29.53,NE,40,4.0,8.0,79,0.00,,BKN060,0.00,VWS V14.00,2013-03-25 23:05:00,
2013-03-25 19:10:00,35.8,29.9,29.53,NNE,30,2.0,8.0,79,0.00,,BKN060,0.00,VWS V14.00,2013-03-25 23:10:00,
2013-03-25 19:15:00,36.0,30.4,29.54,NE,42,2.0,11.0,80,0.00,,BKN060,0.00,VWS V14.00,2013-03-25 23:15:00,
2013-03-25 19:20:00,36.0,30.1,29.53,NE,42,2.0,11.0,79,0.00,,BKN060,0.00,VWS V14.00,2013-03-25 23:20:00,
2013-03-25 19:25:00,35.8,30.2,29.53,NE,42,1.0,11.0,80,0.00,,BKN060,0.00,VWS V14.00,2013-03-25 23:25:00,
2013-03-25 19:30:00,35.8,30.5,29.53,NNE,25,4.0,5.0,81,0.00,,BKN060,0.00,VWS V14.00,2013-03-25 23:30:00,
2013-03-25 19:35:00,35.7,30.1,29.54,North,3,1.0,6.0,80,0.00,,BKN060,0.00,VWS V14.00,2013-03-25 23:35:00,
2013-03-25 19:40:00,35.7,30.1,29.53,NNE,25,2.0,7.0,80,0.00,,BKN060,0.00,VWS V14.00,2013-03-25 23:40:00,
2013-03-25 19:45:00,35.7,30.1,29.53,NNE,25,0.0,7.0,80,0.00,,BKN060,0.00,VWS V14.00,2013-03-25 23:45:00,
2013-03-25 19:50:00,35.5,30.0,29.53,NE,42,3.0,11.0,80,0.00,,BKN060,0.00,VWS V14.00,2013-03-25 23:50:00,
2013-03-25 19:55:00,35.5,30.0,29.54,NNE,32,1.0,11.0,80,0.00,,BKN060,0.00,VWS V14.00,2013-03-25 23:55:00,
2013-03-25 20:00:00,35.5,30.0,29.54,NNE,22,5.0,5.0,80,0.00,,SCT055,0.00,VWS V14.00,2013-03-26 00:00:00,
2013-03-25 20:05:00,35.4,29.9,29.55,North,3,4.0,9.0,80,0.00,,SCT055,0.00,VWS V14.00,2013-03-26 00:05:00,
2013-03-25 20:10:00,35.4,29.5,29.55,NNE,33,3.0,9.0,79,0.00,,SCT055,0.00,VWS V14.00,2013-03-26 00:10:00,
2013-03-25 20:15:00,35.4,29.5,29.55,NE,35,2.0,9.0,79,0.00,,SCT055,0.00,VWS V14.00,2013-03-26 00:15:00,
2013-03-25 20:20:00,35.4,29.5,29.55,NE,37,6.0,9.0,79,0.00,,SCT055,0.00,VWS V14.00,2013-03-26 00:20:00,
2013-03-25 20:25:00,35.3,29.5,29.55,NE,34,1.0,9.0,79,0.00,,SCT055,0.00,VWS V14.00,2013-03-26 00:25:00,
2013-03-25 20:30:00,35.3,29.8,29.55,North,7,3.0,4.0,80,0.00,,SCT055,0.00,VWS V14.00,2013-03-26 00:30:00,
2013-03-25 20:35:00,35.1,29.6,29.55,NE,42,4.0,8.0,80,0.00,,SCT055,0.00,VWS V14.00,2013-03-26 00:35:00,
2013-03-25 20:40:00,35.0,29.5,29.55,NE,42,3.0,8.0,80,0.00,,SCT055,0.00,VWS V14.00,2013-03-26 00:40:00,
2013-03-25 20:45:00,35.0,29.8,29.55,North,0,5.0,8.0,81,0.00,,SCT055,0.00,VWS V14.00,2013-03-26 00:45:00,
2013-03-25 20:50:00,34.8,29.6,29.55,NE,42,3.0,8.0,81,0.00,,SCT055,0.00,VWS V14.00,2013-03-26 00:50:00,
2013-03-25 20:55:00,34.8,29.6,29.55,ENE,68,3.0,8.0,81,0.00,,SCT055,0.00,VWS V14.00,2013-03-26 00:55:00,
2013-03-25 21:00:00,34.8,29.6,29.55,ENE,78,3.0,3.0,81,0.00,,FEW050,0.00,VWS V14.00,2013-03-26 01:00:00,
2013-03-25 21:05:00,34.8,29.6,29.55,NE,38,2.0,5.0,81,0.00,,FEW050,0.00,VWS V14.00,2013-03-26 01:05:00,
2013-03-25 21:10:00,34.7,29.5,29.55,NE,43,3.0,7.0,81,0.00,,FEW050,0.00,VWS V14.00,2013-03-26 01:10:00,
2013-03-25 21:15:00,34.7,29.8,29.55,NE,35,1.0,9.0,82,0.00,,FEW050,0.00,VWS V14.00,2013-03-26 01:15:00,
2013-03-25 21:20:00,34.7,29.8,29.55,NE,38,1.0,9.0,82,0.00,,FEW050,0.00,VWS V14.00,2013-03-26 01:20:00,
2013-03-25 21:25:00,34.7,29.8,29.55,NE,38,2.0,9.0,82,0.00,,FEW050,0.00,VWS V14.00,2013-03-26 01:25:00,
2013-03-25 21:30:00,34.7,29.8,29.55,NNE,32,2.0,4.0,82,0.00,,FEW050,0.00,VWS V14.00,2013-03-26 01:30:00,
2013-03-25 21:35:00,34.7,29.8,29.55,NNE,27,2.0,6.0,82,0.00,,FEW050,0.00,VWS V14.00,2013-03-26 01:35:00,
2013-03-25 21:40:00,34.7,29.8,29.54,NNE,22,1.0,6.0,82,0.00,,FEW050,0.00,VWS V14.00,2013-03-26 01:40:00,
2013-03-25 21:45:00,34.7,29.8,29.55,NNE,22,3.0,6.0,82,0.00,,FEW050,0.00,VWS V14.00,2013-03-26 01:45:00,
2013-03-25 21:50:00,34.5,29.6,29.55,NNE,22,2.0,6.0,82,0.00,,FEW050,0.00,VWS V14.00,2013-03-26 01:50:00,
2013-03-25 21:55:00,34.5,29.6,29.55,NNE,22,1.0,6.0,82,0.00,,FEW050,0.00,VWS V14.00,2013-03-26 01:55:00,
2013-03-25 22:00:00,34.5,29.6,29.55,NNE,24,0.0,3.0,82,0.00,,BKN065,0.00,VWS V14.00,2013-03-26 02:00:00,
2013-03-25 22:05:00,34.5,29.6,29.55,NNE,24,1.0,6.0,82,0.00,,BKN065,0.00,VWS V14.00,2013-03-26 02:05:00,
2013-03-25 22:10:00,34.5,29.9,29.54,NE,50,9.0,13.0,83,0.00,,BKN065,0.00,VWS V14.00,2013-03-26 02:10:00,
2013-03-25 22:15:00,34.4,29.5,29.55,NE,50,3.0,13.0,82,0.00,,BKN065,0.00,VWS V14.00,2013-03-26 02:15:00,
2013-03-25 22:20:00,34.4,29.8,29.54,NE,50,2.0,13.0,83,0.00,,BKN065,0.00,VWS V14.00,2013-03-26 02:20:00,
2013-03-25 22:25:00,34.4,29.8,29.54,NE,50,3.0,13.0,83,0.00,,BKN065,0.00,VWS V14.00,2013-03-26 02:25:00,
2013-03-25 22:30:00,34.3,29.7,29.54,NE,39,2.0,2.0,83,0.00,,BKN065,0.00,VWS V14.00,2013-03-26 02:30:00,
2013-03-25 22:35:00,34.3,29.7,29.54,NE,38,3.0,5.0,83,0.00,,BKN065,0.00,VWS V14.00,2013-03-26 02:35:00,
2013-03-25 22:40:00,34.1,29.5,29.54,NE,51,3.0,8.0,83,0.00,,BKN065,0.00,VWS V14.00,2013-03-26 02:40:00,
2013-03-25 22:45:00,34.1,29.5,29.54,North,1,2.0,8.0,83,0.00,,BKN065,0.00,VWS V14.00,2013-03-26 02:45:00,
2013-03-25 22:50:00,34.1,29.5,29.54,North,0,3.0,8.0,83,0.00,,BKN065,0.00,VWS V14.00,2013-03-26 02:50:00,
2013-03-25 22:55:00,34.1,29.8,29.54,NE,49,2.0,11.0,84,0.00,,BKN065,0.00,VWS V14.00,2013-03-26 02:55:00,
2013-03-25 23:00:00,34.1,29.5,29.54,North,0,2.0,3.0,83,0.00,,BKN065,0.00,VWS V14.00,2013-03-26 03:00:00,
2013-03-25 23:05:00,34.1,29.5,29.54,North,0,3.0,5.0,83,0.00,,OVC070,0.00,VWS V14.00,2013-03-26 03:05:00,
2013-03-25 23:10:00,34.1,29.5,29.54,North,0,1.0,5.0,83,0.00,,OVC070,0.00,VWS V14.00,2013-03-26 03:10:00,
2013-03-25 23:15:00,34.1,29.5,29.54,North,8,0.0,6.0,83,0.00,,OVC070,0.00,VWS V14.00,2013-03-26 03:15:00,
2013-03-25 23:20:00,34.1,29.5,29.54,North,8,1.0,6.0,83,0.00,,OVC070,0.00,VWS V14.00,2013-03-26 03:20:00,
2013-03-25 23:25:00,34.2,29.6,29.53,North,8,1.0,6.0,83,0.00,,OVC070,0.00,VWS V14.00,2013-03-26 03:25:00,
2013-03-25 23:30:00,34.2,29.3,29.54,North,9,6.0,7.0,82,0.00,,OVC070,0.00,VWS V14.00,2013-03-26 03:30:00,
2013-03-25 23:35:00,34.2,29.3,29.53,North,9,2.0,7.0,82,0.00,,OVC070,0.00,VWS V14.00,2013-03-26 03:35:00,
2013-03-25 23:40:00,34.3,29.7,29.53,NW,307,2.0,7.0,83,0.00,,OVC070,0.00,VWS V14.00,2013-03-26 03:40:00,
2013-03-25 23:45:00,34.3,29.4,29.53,North,0,1.0,7.0,82,0.00,,OVC070,0.00,VWS V14.00,2013-03-26 03:45:00,
2013-03-25 23:50:00,34.3,29.4,29.53,NE,42,4.0,9.0,82,0.00,,OVC070,0.00,VWS V14.00,2013-03-26 03:50:00,
2013-03-25 23:55:00,34.3,29.4,29.53,NE,42,3.0,9.0,82,0.00,,OVC070,0.00,VWS V14.00,2013-03-26 03:55:00,